x

Luke Offshore Test Platform - 64 Nm South Of Dauphin Island, Al (42040) Wave Buoy

10:50pm - Thu 24th Jul 2014 All times are CDT. -5 hours from GMT.

  • Sig Wave height 1.6ft
  • Average Period 3s
  • Wind
    13mph, 16mph gusts
  • Sea Temp 85°f
  • Air Temp 84°f
  • Sea Pressure 1016.1mb
  • Luke Offshore Test Platform - 64 Nm South Of Dauphin Island, Al
  • Luke Offshore Test Platform - 64 Nm South Of Dauphin Island, Al

More Historic Weather Station data

Upgrade to MSW Pro to gain access to the past 30 days of data for over 8000 Wavebouys and Weather Stations around the globe.

Join Pro

Comparision Forecast

View Surf forecast
   
Thu 07/24 10:50pm 1.6ft 3s 13 16 mph 1016.1mb 85f 84f
9:50pm 1.3ft 3s 13 16 mph 1016mb 86f 84f
8:50pm 1.3ft 4s 11 13 mph 1015.6mb 86f 84f
7:50pm 1.3ft 4s 11 13 mph 1015mb 87f 84f
6:50pm 1.3ft 4s 11 13 mph 1014.4mb 87f 85f
5:50pm 1.3ft 4s 11 13 mph 1014.5mb 87f 84f
4:50pm 1ft 4s 9 11 mph 1014.8mb 86f 84f
3:50pm 1ft 4s 9 11 mph 1015.5mb 86f 84f
2:50pm 1.3ft 4s 4 7 mph 1016.2mb 86f 83f
1:50pm 1ft 4s 2 4 mph 1016.4mb 85f 82f
12:50pm 1.3ft 4s 2 11 mph 1017mb 85f 82f
11:50am 1.3ft 4s 20 25 mph 1017.3mb 85f 79f
10:50am 1.3ft 4s 4 7 mph 1017.5mb 85f 82f
9:50am 1.3ft 3s 9 11 mph 1017.1mb 84f 83f
8:50am 1.3ft 3s 9 11 mph 1016.7mb 84f 82f
7:50am 1.6ft 3s 11
mph
1016.4mb 84f 83f
6:50am 1.3ft 3s 11 13 mph 1016mb 84f 82f
5:50am 1.3ft 3s 11 13 mph 1015.7mb 84f 82f
4:50am 1.3ft 3s 13 16 mph 1014.9mb 84f 82f
3:50am 1.3ft 3s 9 11 mph 1014.9mb 84f 82f
2:50am 1ft 4s 11 13 mph 1015.2mb 84f 82f
1:50am 1ft 4s 9 11 mph 1015.8mb 84f 82f
12:50am 1ft 4s 9 11 mph 1016.4mb 84f 82f
Wed 07/23 11:50pm 1ft 4s 11
mph
1016.8mb 84f 82f
10:50pm 1ft 4s 9 11 mph 1017.2mb 85f 82f
9:50pm 1ft 4s 11
mph
1017mb 85f 83f
7:50pm 1ft 4s 9 11 mph 1015.4mb 85f 82f
6:50pm 1ft 4s 9 11 mph 1015.3mb 86f 82f
5:50pm 1ft 4s 7 9 mph 1015.7mb 86f 82f
4:50pm 1.3ft 4s 4 7 mph 1016.4mb 87f 81f
3:50pm 1.3ft 4s 2
mph
1016.9mb 87f 81f
2:50pm 1.6ft 3s 4 7 mph 1017.5mb 86f 80f
1:50pm 2ft 3s 9
mph
1017.9mb 85f 80f
12:50pm 2.5ft 3s 11 13 mph 1018.7mb 85f 81f
11:50am 1.6ft 3s 16 18 mph 1018.6mb 85f 79f
10:50am 1.6ft 3s 13 16 mph 1018.5mb 84f 82f
9:50am 1.6ft 3s 13 16 mph 1018.2mb 84f 80f
8:50am 1.3ft 3s 4 18 mph 1018.2mb 84f 81f
6:50am 1ft 3s 16 20 mph 1017.2mb 84f 80f
5:50am 1ft 4s 11 13 mph 1016.9mb 84f 82f
4:50am 1ft 4s 9 11 mph 1016.3mb 83f 82f
3:50am 1ft 4s 7
mph
1016.6mb 83f 82f
2:50am 1ft 4s 7 9 mph 1016.5mb 83f 82f
1:50am 1ft 4s 7 9 mph 1016.5mb 84f 82f
12:50am 1ft 4s 7 11 mph 1017mb 84f 82f
Tue 07/22 11:50pm 1.3ft 4s 4 7 mph 1017.7mb 84f 82f
8:50pm 1ft 4s 2
mph
1017.2mb 85f 83f
7:50pm 1ft 4s 4 7 mph 1016.6mb 86f 83f
6:50pm 0.7ft 3s 7 9 mph 1016.6mb 86f 83f
5:50pm 0.7ft 4s 7 9 mph 1016.4mb 86f 83f
4:50pm 1ft 3s 9 11 mph 1016.4mb 86f 83f
3:50pm 1ft 4s 11 13 mph 1016.3mb 86f 82f
2:50pm 0.7ft 4s 9 11 mph 1016.7mb 86f 83f
1:50pm 1ft 4s 4 7 mph 1017.7mb 87f 83f
12:50pm 1ft 4s 2 4 mph 1017.6mb 87f 84f
11:50am 1ft 4s 4
mph
1018.1mb 86f 83f
10:50am 1ft 4s  -  2 mph 1017.7mb 85f 84f
9:50am 1.3ft 4s 7
mph
1017.5mb 84f 82f
8:50am 1.3ft 4s 7 9 mph 1017.5mb 83f 82f
7:50am 1.3ft 4s 7
mph
1017.3mb 83f 82f
6:50am 1.3ft 4s 7
mph
1016.7mb 82f 82f
5:50am 1.3ft 4s 4 7 mph 1016.2mb 83f 82f
4:50am 1.3ft 4s 4 7 mph 1015.6mb 83f 82f
3:50am 1.3ft 4s 7
mph
1015.2mb 83f 82f
2:50am 1.6ft 4s 4 7 mph 1015.5mb 83f 82f
1:50am 1.6ft 4s 4
mph
1015.8mb 83f 82f
12:50am 1.6ft 4s 4 7 mph 1016.3mb 83f 83f
Mon 07/21 11:50pm 1.6ft 4s 7
mph
1016.7mb 83f 82f
10:50pm 1.6ft 5s 7 9 mph 1016.7mb 83f 82f
8:50pm 1ft 4s 9 11 mph 1015.7mb 84f 82f
7:50pm 1ft 4s 7 9 mph 1015.8mb 84f 82f
6:50pm 1ft 4s 7 9 mph 1015.8mb 85f 83f
5:50pm 1.3ft 4s 7
mph
1015.7mb 85f 82f
4:50pm 1.3ft 4s 4 7 mph 1016.5mb 85f 82f
3:50pm 1.3ft 4s 2 4 mph 1016.6mb 85f 82f
2:50pm 1.3ft 4s 2
mph
1016.8mb 83f 82f
1:50pm 1.6ft 4s 9
mph
1017.4mb 83f 81f
12:50pm 2ft 3s 11 13 mph 1018mb 83f 81f
11:50am 2ft 3s 16 18 mph 1017.6mb 83f 80f
10:50am 1.6ft 3s 13 16 mph 1018mb 82f 79f
9:50am 2.5ft 3s 4 7 mph 1018.3mb 82f 76f
8:50am 3ft 3s 9 13 mph 1018.1mb 82f 76f
7:50am 2.5ft 3s 16 18 mph 1017mb 82f 80f
6:50am 3ft 3s 9 16 mph 1016.8mb 82f 78f
5:50am 2.5ft 3s 18 20 mph 1015.7mb 82f 82f